aviador You're here:

KDFW Decoded Metar

DALLAS-FORT WORTH in TX, USA
Report Time2017-09-25 19:53:00
UTC Time2017-09-25 20:34:26
Flight Rules vfr VFR
Wind160° at 12 Gusting to 19 kt
W.Decomp.*RWY 17: 11.5 kt HW 3.3 kt LCW
RWY 13: 11.0 kt HW 4.9 kt RCW
RWY 18: 10.8 kt HW 5.3 kt LCW
W.Rank160° ranks 4
Current wind is above 160° avg. (9.6)
Visibility9999 m
Phenomena:N/A
Clouds:Few 050 Hf
Broken 180 Hf
Broken 250 Hf
Expected CloudBase > 6,000 ft AGL from Temp-Dew spread
Ceiling18,000 ft
Temp33°C (ISA +19)
Dew Point18°C (41% RH)
Heat Index34.0°C
AAT31.5°C
QNH1009 hPa
Density Alt3,159 ft
Elevation571 ft
Report Wrong Elevation
Raw Report
KDFW 251953Z 16012G19KT 10SM FEW050 BKN180 BKN250 33/18 A2981 RMK
AO2 SLP086 T03330178=

Extra information for KDFW:More info

Metar Taf Metar & Taf Last 4 Metars F.Rules Stats Wind Profile Meteogram Temp Stats Airport Information Weather charts Add Link Nearby VenuesMetar ALERT Operation Metar Decoded Social comments

AIRNAV info for KDFW